Monterey Peninsula Airport
KMRY : now visible

Airfield :











YOU CAN JOIN US ON...

 
LOGIN :

Register | Disclaimer

   EN    FR    IT 

 









Legend :    VFR   Marginal VFR   IFR   Intensive IFR   Very Intensive IFR
Visi :
Ceiling :
>= 8 km
>= 3000ft
5 to 8 km
1000 to 3000 ft
1500m to 5 km
500 to 1000 ft
800 to 1500m
200 to 500 ft
< 800m
< 200 ft
Symbols :   Thunderstorms  Fog  Heavy snow  Heavy precipitations  Wind > 20 kt






- Airport Elevation : 257 ft
- IATA code : MRY


KMRY - Monterey Peninsula

CURRENT METAR :
  • 250954Z AUTO 20003KT 10SM CLR A3003 RMK AO2 SLPNO $

EXPIRED METARs :
  • 250854Z AUTO VRB03KT 10SM CLR A3003 RMK AO2 SLPNO 51007 $
  • 250754Z AUTO 24005KT 10SM CLR A3003 RMK AO2 SLPNO $

TAF KMRY
Valid from the 25 at 10:00 until the 26 at 06:00 UTC


251004Z 2510/2606 VRB03KT P6SM SKC
TEMPO 2512/2516 BKN008
FM251600 29006KT P6SM FEW012
FM252000 29012KT P6SM SKC
FM260300 25004KT P6SM FEW010
KZOA FIR / North America



MET'MAP, your aeronautical weather chart ! - Copyright ORBIFLY December 2007 - Disclaimer

ORBIFLY MET'MAP TEAM :

Programming & Development : Alexandra Zaïnal
Concept & original design : Baudouin d'Aumeries
Assistance for programming : Marc-Olivier Méhu
Technical & hardware support : Manuel Goepfert

Contact : metmap@orbifly.com




SOURCES & CREDITS :

   NOAA       Earth
Advisory